createdAt,value
2023-02-08T07:06:35.314Z,103389.63
2023-02-08T07:09:03.517Z,103387.50
2023-02-08T07:11:31.015Z,103382.81
2023-02-08T07:13:58.514Z,103381.69
2023-02-08T07:16:26.384Z,103378.34
2023-02-08T07:18:53.503Z,103384.25
2023-02-08T07:21:24.049Z,103375.53
2023-02-08T07:23:56.572Z,103371.34
2023-02-08T07:26:23.450Z,103372.84
2023-02-08T07:28:52.852Z,103386.31
2023-02-08T07:31:19.716Z,103373.31
2023-02-08T07:33:50.609Z,103380.94
2023-02-08T07:36:21.067Z,103371.28
2023-02-08T07:38:58.361Z,103361.47
2023-02-08T07:41:25.434Z,103361.13
2023-02-08T07:43:52.341Z,103352.81
2023-02-08T07:46:21.132Z,103352.25
2023-02-08T07:48:52.860Z,103344.50
2023-02-08T07:51:19.730Z,103357.09
2023-02-08T07:53:50.485Z,103348.47
2023-02-08T07:56:17.730Z,103350.81
2023-02-08T07:58:45.152Z,103364.28
2023-02-08T08:01:21.897Z,103359.38
2023-02-08T08:03:51.511Z,103366.72
2023-02-08T08:06:22.835Z,103368.28
2023-02-08T08:08:50.188Z,103374.69
2023-02-08T08:11:18.548Z,103370.34
2023-02-08T08:13:45.494Z,103364.06
2023-02-08T08:16:12.873Z,103369.47
2023-02-08T08:18:39.765Z,103376.09
2023-02-08T08:21:06.901Z,103368.28
2023-02-08T08:23:33.742Z,103365.22
2023-02-08T08:26:00.805Z,103369.50
2023-02-08T08:28:28.088Z,103366.22
2023-02-08T08:30:55.062Z,103362.03
2023-02-08T08:33:22.105Z,103349.94
2023-02-08T08:35:48.904Z,103350.94
2023-02-08T08:38:16.498Z,103354.34
2023-02-08T08:40:43.496Z,103345.09
2023-02-08T08:43:10.454Z,103344.53
2023-02-08T08:45:37.376Z,103347.53
2023-02-08T08:48:04.653Z,103333.78
2023-02-08T08:50:31.480Z,103339.81
2023-02-08T08:52:58.265Z,103337.47
2023-02-08T08:55:26.001Z,103331.81
2023-02-08T08:57:53.819Z,103330.41
2023-02-08T09:00:20.941Z,103327.84
2023-02-08T09:02:49.719Z,103326.56
2023-02-08T09:05:16.585Z,103312.25
2023-02-08T09:07:43.394Z,103316.59
2023-02-08T09:10:10.200Z,103322.81
2023-02-08T09:12:37.056Z,103328.28
2023-02-08T09:15:04.238Z,103333.53
2023-02-08T09:17:31.701Z,103345.31
2023-02-08T09:19:58.457Z,103352.81
2023-02-08T09:22:25.164Z,103345.56
2023-02-08T09:24:53.789Z,103345.34
2023-02-08T09:27:20.512Z,103342.97
2023-02-08T09:29:47.357Z,103333.75
2023-02-08T09:32:14.126Z,103341.00
2023-02-08T09:34:41.021Z,103332.34
2023-02-08T09:37:08.540Z,103331.56
2023-02-08T09:39:35.341Z,103337.84
2023-02-08T09:42:01.929Z,103338.00
2023-02-08T09:44:35.548Z,103338.50
2023-02-08T09:47:08.662Z,103329.56
2023-02-08T09:49:41.916Z,103334.28
2023-02-08T09:52:15.180Z,103340.31
2023-02-08T09:54:46.736Z,103341.75
2023-02-08T09:57:17.781Z,103343.09
2023-02-08T10:00:00.507Z,103326.88
2023-02-08T10:02:30.068Z,103332.44
2023-02-08T10:05:10.794Z,103337.13
2023-02-08T10:07:40.027Z,103331.28
2023-02-08T10:10:45.045Z,103337.84
2023-02-08T10:13:41.194Z,103329.63
2023-02-08T10:16:14.173Z,103337.88
2023-02-08T10:18:52.781Z,103326.41
2023-02-08T10:21:22.654Z,103344.91
2023-02-08T10:24:19.086Z,103344.91
2023-02-08T10:26:54.568Z,103338.44
2023-02-08T10:29:33.545Z,103329.66
2023-02-08T10:32:06.426Z,103343.41
2023-02-08T10:35:03.505Z,103339.44
2023-02-08T10:37:44.367Z,103331.03
2023-02-08T10:40:31.671Z,103335.13
2023-02-08T10:43:31.426Z,103333.50
2023-02-08T10:46:16.742Z,103338.19
2023-02-08T10:49:04.214Z,103330.78
2023-02-08T10:51:33.135Z,103330.63
2023-02-08T10:54:00.004Z,103318.63
2023-02-08T10:56:29.860Z,103328.50
2023-02-08T10:59:01.206Z,103316.31
2023-02-08T11:01:28.183Z,103328.47
2023-02-08T11:04:05.028Z,103322.03
2023-02-08T11:06:32.063Z,103315.09
2023-02-08T11:08:59.301Z,103316.41
2023-02-08T11:11:29.928Z,103326.59
2023-02-08T11:14:10.399Z,103321.47
2023-02-08T11:16:38.520Z,103319.09
2023-02-08T11:19:08.116Z,103320.13
2023-02-08T11:21:37.995Z,103310.75
2023-02-08T11:24:46.086Z,103313.91
2023-02-08T11:27:34.609Z,103303.13
2023-02-08T11:30:13.616Z,103306.81
2023-02-08T11:32:41.856Z,103302.31
2023-02-08T11:35:24.516Z,103306.50
2023-02-08T11:37:53.368Z,103301.03
2023-02-08T11:40:31.494Z,103290.72
2023-02-08T11:42:58.844Z,103293.97
2023-02-08T11:45:28.977Z,103286.81
2023-02-08T11:47:56.556Z,103270.75
2023-02-08T11:50:35.419Z,103266.66
2023-02-08T11:53:04.926Z,103262.69
2023-02-08T11:55:33.566Z,103258.34
2023-02-08T11:58:02.864Z,103265.13
2023-02-08T12:00:37.902Z,103263.16
2023-02-08T12:03:18.715Z,103262.66
2023-02-08T12:05:58.067Z,103271.09
2023-02-08T12:08:41.221Z,103253.50
2023-02-08T12:11:36.806Z,103242.25
2023-02-08T12:14:21.938Z,103245.69
2023-02-08T12:17:18.323Z,103237.34
2023-02-08T12:20:00.907Z,103238.38
2023-02-08T12:22:29.393Z,103245.19
2023-02-08T12:25:00.998Z,103239.22
2023-02-08T12:27:40.263Z,103238.75
2023-02-08T12:30:11.502Z,103238.88
2023-02-08T12:32:44.367Z,103231.00
2023-02-08T12:35:33.217Z,103230.19
2023-02-08T12:38:35.860Z,103222.88
2023-02-08T12:41:17.931Z,103216.94
2023-02-08T12:44:22.342Z,103208.19
2023-02-08T12:46:49.161Z,103213.75
2023-02-08T12:49:50.401Z,103200.56
2023-02-08T12:52:42.648Z,103199.59
2023-02-08T12:55:37.680Z,103190.47
2023-02-08T12:58:24.675Z,103187.34
2023-02-08T13:00:52.751Z,103171.72
2023-02-08T13:03:32.096Z,103173.22
2023-02-08T13:06:02.612Z,103170.94
2023-02-08T13:08:41.700Z,103170.00
2023-02-08T13:11:21.163Z,103157.31
2023-02-08T13:13:56.987Z,103150.88
2023-02-08T13:16:28.340Z,103151.38
2023-02-08T13:19:17.129Z,103147.44
2023-02-08T13:21:44.400Z,103134.00
2023-02-08T13:24:25.803Z,103130.59
2023-02-08T13:26:52.794Z,103119.28
2023-02-08T13:29:20.752Z,103116.97
2023-02-08T13:31:51.899Z,103117.13
2023-02-08T13:34:38.668Z,103116.31
2023-02-08T13:37:24.655Z,103115.47
2023-02-08T13:40:08.521Z,103104.78
2023-02-08T13:42:47.764Z,103102.63
2023-02-08T13:45:28.957Z,103102.97
2023-02-08T13:48:03.913Z,103104.03
2023-02-08T13:50:57.808Z,103095.97
2023-02-08T13:53:40.043Z,103091.81
2023-02-08T13:56:11.923Z,103089.16
2023-02-08T13:58:47.758Z,103087.78
2023-02-08T14:01:14.517Z,103092.97
2023-02-08T14:03:41.868Z,103080.19
2023-02-08T14:06:17.720Z,103077.06
2023-02-08T14:09:18.777Z,103079.03
2023-02-08T14:12:00.811Z,103071.84
2023-02-08T14:14:31.582Z,103061.53
2023-02-08T14:17:04.533Z,103061.38
2023-02-08T14:19:39.648Z,103074.53
2023-02-08T14:22:12.626Z,103058.56
2023-02-08T14:24:41.727Z,103064.22
2023-02-08T14:27:25.312Z,103059.56
2023-02-08T14:30:16.892Z,103057.03
2023-02-08T14:32:49.128Z,103061.41
2023-02-08T14:35:15.842Z,103069.19
2023-02-08T14:37:44.501Z,103063.59
2023-02-08T14:40:23.629Z,103053.66
2023-02-08T14:43:18.917Z,103051.69
2023-02-08T14:45:51.818Z,103050.94
2023-02-08T14:48:32.813Z,103057.81
2023-02-08T14:51:11.603Z,103047.50
2023-02-08T14:53:48.813Z,103046.38
2023-02-08T14:56:34.270Z,103044.22
2023-02-08T14:59:12.205Z,103047.19
2023-02-08T15:01:49.013Z,103051.41
2023-02-08T15:04:18.449Z,103052.34
2023-02-08T15:07:04.022Z,103052.03
2023-02-08T15:09:32.791Z,103043.66
2023-02-08T15:12:11.549Z,103048.25
2023-02-08T15:14:40.860Z,103052.09
2023-02-08T15:17:19.605Z,103043.03
2023-02-08T15:19:46.618Z,103035.66
2023-02-08T15:22:17.517Z,103036.34
2023-02-08T15:24:56.005Z,103045.03
2023-02-08T15:27:33.241Z,103031.56
2023-02-08T15:30:01.043Z,103019.19
2023-02-08T15:32:29.317Z,103023.78
2023-02-08T15:35:02.060Z,103016.03
2023-02-08T15:37:33.738Z,103011.88
2023-02-08T15:40:01.743Z,103016.53
2023-02-08T15:42:31.831Z,103011.22
2023-02-08T15:45:00.994Z,103012.91
2023-02-08T15:47:31.129Z,103009.56
2023-02-08T15:49:59.075Z,103013.16
2023-02-08T15:52:32.590Z,103010.88
2023-02-08T15:54:59.537Z,103005.75
2023-02-08T15:57:32.179Z,103008.31
2023-02-08T15:59:59.259Z,102991.41
2023-02-08T16:02:34.339Z,102993.84
2023-02-08T16:05:04.323Z,102986.25
2023-02-08T16:07:40.926Z,102979.22
2023-02-08T16:10:08.967Z,102967.69
2023-02-08T16:12:36.165Z,102972.78
2023-02-08T16:15:03.495Z,102972.84
2023-02-08T16:17:44.047Z,102966.19
2023-02-08T16:20:24.098Z,102956.63
2023-02-08T16:23:21.786Z,102958.00
2023-02-08T16:25:51.478Z,102958.72
2023-02-08T16:28:33.971Z,102945.97
2023-02-08T16:31:03.252Z,102948.75
2023-02-08T16:33:32.354Z,102949.31
2023-02-08T16:36:03.138Z,102944.41
2023-02-08T16:38:32.193Z,102943.19
2023-02-08T16:41:12.173Z,102948.75
2023-02-08T16:43:44.302Z,102941.94
2023-02-08T16:46:11.832Z,102945.00
2023-02-08T16:48:41.216Z,102940.88
2023-02-08T16:51:16.893Z,102935.84
2023-02-08T16:53:47.093Z,102940.56
2023-02-08T16:56:15.960Z,102939.38
2023-02-08T16:58:43.666Z,102938.00
2023-02-08T17:01:13.297Z,102932.34
2023-02-08T17:03:41.364Z,102933.72
2023-02-08T17:06:31.837Z,102932.34
2023-02-08T17:09:00.410Z,102934.59
2023-02-08T17:11:27.611Z,102925.94
2023-02-08T17:13:54.701Z,102933.16
2023-02-08T17:16:23.931Z,102925.41
2023-02-08T17:18:50.908Z,102930.81
2023-02-08T17:21:18.411Z,102926.53
2023-02-08T17:23:45.986Z,102933.34
2023-02-08T17:26:14.149Z,102935.66
2023-02-08T17:28:41.002Z,102932.84
2023-02-08T17:31:10.724Z,102914.72
2023-02-08T17:33:40.212Z,102923.63
2023-02-08T17:36:10.402Z,102930.25
2023-02-08T17:38:41.389Z,102926.97
2023-02-08T17:41:19.333Z,102919.38
2023-02-08T17:43:50.473Z,102922.00
2023-02-08T17:46:20.496Z,102910.22
2023-02-08T17:48:48.439Z,102907.41
2023-02-08T17:51:17.688Z,102910.69
2023-02-08T17:53:45.174Z,102901.88
2023-02-08T17:56:13.541Z,102891.66
2023-02-08T17:58:40.909Z,102894.84
2023-02-08T18:01:08.995Z,102894.69
2023-02-08T18:03:36.667Z,102889.44
2023-02-08T18:06:06.205Z,102892.41
2023-02-08T18:08:33.018Z,102900.50
2023-02-08T18:11:04.565Z,102889.44
2023-02-08T18:13:31.681Z,102899.22
2023-02-08T18:15:58.581Z,102885.03
2023-02-08T18:18:25.506Z,102880.28
2023-02-08T18:20:52.326Z,102885.09
2023-02-08T18:23:29.291Z,102879.22
2023-02-08T18:26:05.455Z,102880.09
2023-02-08T18:28:32.448Z,102875.28
2023-02-08T18:31:04.370Z,102885.41
2023-02-08T18:33:32.233Z,102873.47
2023-02-08T18:35:59.136Z,102874.38
2023-02-08T18:38:26.231Z,102868.91
2023-02-08T18:40:53.717Z,102860.13
2023-02-08T18:43:20.780Z,102869.34
2023-02-08T18:46:01.902Z,102872.91
2023-02-08T18:48:29.173Z,102872.03
2023-02-08T18:51:00.220Z,102868.63
2023-02-08T18:53:27.759Z,102864.81
2023-02-08T18:55:55.472Z,102865.38
2023-02-08T18:58:23.425Z,102867.81
2023-02-08T19:00:50.992Z,102874.31
2023-02-08T19:03:21.514Z,102865.22
2023-02-08T19:05:49.050Z,102872.69
2023-02-08T19:08:20.623Z,102870.66
2023-02-08T19:10:47.461Z,102867.81
2023-02-08T19:13:14.294Z,102875.13
2023-02-08T19:15:41.628Z,102879.16
2023-02-08T19:18:09.046Z,102881.00
2023-02-08T19:20:38.066Z,102878.75
2023-02-08T19:23:05.776Z,102871.00
2023-02-08T19:25:36.925Z,102873.06
2023-02-08T19:28:07.516Z,102870.75
2023-02-08T19:30:36.109Z,102869.59
2023-02-08T19:33:03.581Z,102871.38
2023-02-08T19:35:30.513Z,102880.25
2023-02-08T19:37:58.193Z,102880.53
2023-02-08T19:40:25.180Z,102875.59
2023-02-08T19:42:52.249Z,102866.09
2023-02-08T19:45:19.073Z,102874.06
2023-02-08T19:47:51.331Z,102870.91
2023-02-08T19:50:18.529Z,102869.59
2023-02-08T19:52:45.412Z,102876.75
2023-02-08T19:55:12.347Z,102877.13
2023-02-08T19:57:40.212Z,102887.19
2023-02-08T20:00:17.674Z,102881.13
2023-02-08T20:02:49.690Z,102892.63
2023-02-08T20:05:18.975Z,102885.59
2023-02-08T20:07:45.933Z,102882.09
2023-02-08T20:10:12.740Z,102882.25
2023-02-08T20:12:39.608Z,102872.53
2023-02-08T20:15:06.674Z,102884.94
2023-02-08T20:17:33.708Z,102889.00
2023-02-08T20:20:00.733Z,102887.38
2023-02-08T20:22:27.827Z,102886.91
2023-02-08T20:24:54.624Z,102890.44
2023-02-08T20:27:21.496Z,102889.28
2023-02-08T20:29:48.343Z,102866.94
2023-02-08T20:32:15.166Z,102876.59
2023-02-08T20:34:53.834Z,102875.09
2023-02-08T20:37:25.524Z,102888.09
2023-02-08T20:39:52.347Z,102882.13
2023-02-08T20:42:19.274Z,102878.75
2023-02-08T20:44:46.377Z,102892.06
2023-02-08T20:47:14.343Z,102883.16
2023-02-08T20:49:42.337Z,102888.75
2023-02-08T20:52:09.403Z,102878.13
2023-02-08T20:54:37.952Z,102861.41
2023-02-08T20:57:06.509Z,102874.84
2023-02-08T20:59:33.887Z,102871.22
2023-02-08T21:02:00.954Z,102882.53
2023-02-08T21:04:27.958Z,102875.94
2023-02-08T21:06:55.059Z,102878.47
2023-02-08T21:09:21.920Z,102875.78
2023-02-08T21:11:49.709Z,102867.03
2023-02-08T21:14:20.946Z,102880.09
2023-02-08T21:16:49.632Z,102881.59
2023-02-08T21:19:17.594Z,102886.28
2023-02-08T21:21:44.580Z,102864.06
2023-02-08T21:24:11.630Z,102884.34
2023-02-08T21:26:38.729Z,102874.59
2023-02-08T21:29:08.312Z,102874.69
2023-02-08T21:31:36.793Z,102882.53
2023-02-08T21:34:04.291Z,102873.91
2023-02-08T21:36:31.467Z,102871.59
2023-02-08T21:38:58.992Z,102872.00
2023-02-08T21:41:31.153Z,102870.91
2023-02-08T21:43:59.677Z,102869.03
2023-02-08T21:46:28.468Z,102861.03
2023-02-08T21:49:14.864Z,102859.16
2023-02-08T21:52:00.932Z,102852.91
2023-02-08T21:54:41.503Z,102842.31
2023-02-08T21:57:11.948Z,102852.31
2023-02-08T21:59:39.106Z,102856.19
2023-02-08T22:02:08.983Z,102864.47
2023-02-08T22:04:55.365Z,102872.03
2023-02-08T22:07:24.095Z,102859.75
2023-02-08T22:09:51.264Z,102851.16
2023-02-08T22:12:20.778Z,102851.50
2023-02-08T22:14:48.795Z,102858.91
2023-02-08T22:17:16.119Z,102847.44
2023-02-08T22:19:43.574Z,102842.63
2023-02-08T22:22:10.966Z,102853.50
2023-02-08T22:24:38.095Z,102854.25
2023-02-08T22:27:05.050Z,102835.72
2023-02-08T22:29:35.054Z,102839.13
2023-02-08T22:32:02.055Z,102837.97
2023-02-08T22:34:29.135Z,102837.97
2023-02-08T22:37:04.705Z,102838.41
2023-02-08T22:39:33.361Z,102824.81
2023-02-08T22:42:03.960Z,102826.81
2023-02-08T22:44:32.665Z,102819.25
2023-02-08T22:47:01.923Z,102822.81
2023-02-08T22:49:29.504Z,102835.63
2023-02-08T22:51:56.723Z,102825.84
2023-02-08T22:54:23.833Z,102822.81
2023-02-08T22:56:51.894Z,102847.50
2023-02-08T22:59:23.964Z,102828.63
2023-02-08T23:01:52.877Z,102835.44
2023-02-08T23:04:20.153Z,102829.66
2023-02-08T23:06:50.704Z,102835.25
2023-02-08T23:09:18.587Z,102839.41
2023-02-08T23:11:47.929Z,102824.25
2023-02-08T23:14:15.676Z,102832.34
2023-02-08T23:16:43.116Z,102839.84
2023-02-08T23:19:15.286Z,102832.66
2023-02-08T23:21:45.989Z,102830.31
2023-02-08T23:24:13.378Z,102841.13
2023-02-08T23:26:40.887Z,102833.47
2023-02-08T23:29:08.624Z,102820.28
2023-02-08T23:31:36.562Z,102838.03
2023-02-08T23:34:03.975Z,102823.22
2023-02-08T23:36:30.980Z,102816.63
2023-02-08T23:38:58.235Z,102828.84
2023-02-08T23:41:25.317Z,102810.66
2023-02-08T23:43:55.031Z,102809.38
2023-02-08T23:46:25.822Z,102819.00
2023-02-08T23:48:53.207Z,102824.38
2023-02-08T23:51:23.355Z,102818.91
2023-02-08T23:53:53.907Z,102810.09
2023-02-08T23:56:30.000Z,102820.69
2023-02-08T23:58:58.760Z,102813.66
